• Join FlightAware (Why Join?)
  • Login
  • US Flag GB Flag 
10:03 EDT


 

Airport Tracker/Info


-or-


 

Live Flight TrackerFlight Track Log ✈ UAL4274 ✈ 22-Apr-2013 ✈ KLFT - KIAH

Flight Track Log - Related Links

Times and Time Zones

All times are in EDT time to prevent confusion due to time zone crossing. See the UAL4274 flight status page for this flight to view local times or setup timezone preferences in your user account.

Time Position Orientation Groundspeed Altitude Reporting Facility
EDT Latitude Longitude Course Direction KTS MPH feet Rate Location/Type
09:57 30.2086 -92.0717 227° Southwest 230 265 6,000  Level Houston Center
09:58 30.0441 -92.1857 229° Southwest  Level FlightAware Approximate
09:58 30.1583 -92.1428 231° Southwest 260 299 9,100  Level Houston Center
09:59 30.0024 -92.2580 229° Southwest  Level FlightAware Approximate
09:59 30.1075 -92.2156 231° Southwest 281 323 10,600  Level Houston Center
10:00 29.9512 -92.3262 229° Southwest  Level FlightAware Approximate
10:00 30.0550 -92.3050 236° Southwest 331 381 12,500  Level Houston Center
10:01 29.9044 -92.4033 249° West  Level FlightAware Approximate
10:01 30.0292 -92.4075 254° West 333 383 14,400  Level Houston Center
10:02 29.8518 -92.4769 227° Southwest  Level FlightAware Approximate
10:02 30.0028 -92.5144 254° West 341 392 16,200  Level Houston Center
10:03 29.9764 -92.6211 254° West 344 396 17,800 840 Climbing Houston Center
10:04 29.9422 -92.7567 254° West 358 412 18,000 60 Climbing Houston Center
10:05 29.9136 -92.8736 254° West 375 432 18,000  Level Houston Center
10:06 29.8847 -92.9919 254° West 380 437 18,000  Level Houston Center
10:07 29.8542 -93.1094 253° West 382 440 18,000  Level Houston Center
10:08 29.8242 -93.2275 254° West 382 440 18,000  Level Houston Center
10:10 29.7942 -93.3453 254° West 381 438 18,000  Level Houston Center
10:11 29.7636 -93.4594 253° West 375 432 18,000  Level Houston Center
10:12 29.7339 -93.5775 254° West 381 438 18,000  Level Houston Center
10:13 29.6969 -93.7172 253° West 381 438 18,000 -60 Level Houston Center
10:14 29.6672 -93.8350 254° West 384 442 17,900 -660 Descending Houston Center
10:15 29.6367 -93.9517 253° West 380 437 16,700 -1,200 Descending Houston Center
10:15 29.6239 -94.0039 254° West 374 430 16,200 -1,260 Descending Houston Center
10:16 29.6075 -94.0619 252° West 366 421 15,400 -1,440 Descending Houston Center
10:16 29.5869 -94.1361 252° West 360 414 14,500 -1,380 Descending Houston Center
10:17 29.5778 -94.1761 255° West 362 417 14,000 -1,080 Descending Houston Center
10:17 29.5567 -94.2533 253° West 365 420 13,400 -780 Descending Houston Center
10:18 29.5489 -94.2867 255° West 362 417 13,200 -420 Descending Houston Center
10:18 29.5447 -94.3653 267° West 353 406 13,000 -540 Descending Houston Center
10:19 29.5550 -94.3964 291° West 353 406 12,700 -1,140 Descending Houston Center
10:19 29.5867 -94.4706 296° West 347 399 11,900 -1,080 Descending Houston Center
10:20 29.5986 -94.4961 298° West 350 403 11,600 -1,140 Descending Houston Center
10:20 29.6250 -94.5617 295° West 348 400 10,900 -1,260 Descending Houston Center
10:21 29.6481 -94.6147 297° West 347 399 10,300 -840 Descending Houston Center
10:21 29.6683 -94.6597 297° West 343 395 10,100 -300 Descending Houston Center
10:22 29.6906 -94.7131 296° West 345 397 10,000 -120 Descending Houston Center
10:22 29.7117 -94.7625 296° West 342 394 10,000  Level Houston Center
10:23 29.7317 -94.8103 296° West 342 394 10,000  Level Houston Center
10:23 29.7558 -94.8700 295° West 339 390 10,000  Level Houston Center
10:24 29.7717 -94.9019 300° West 329 379 10,000 -300 Level Houston Center
10:24 29.7903 -94.9478 295° West 255 293 9,700 -720 Descending Houston Center
10:25 29.8022 -94.9778 295° West 270 311 9,300 -1,140 Descending Houston Center
10:25 29.8233 -95.0303 295° West 269 310 8,600 -1,200 Descending Houston Center
10:26 29.8417 -95.0692 299° West 269 310 8,100 -1,020 Descending Houston Center
10:27 29.8558 -95.1081 293° West 264 304 7,600 -1,020 Descending Houston Center
10:27 29.8731 -95.1444 299° West 264 304 7,100 -1,020 Descending Houston Center
10:28 29.8881 -95.1836 294° West 264 304 6,600 -900 Descending Houston Center
10:28 29.9011 -95.2225 291° West 268 308 6,200 -600 Descending Houston Center
10:29 29.8983 -95.2717 266° West 277 319 6,000 -240 Descending Houston Center
10:29 29.9006 -95.3097 274° West 272 313 6,000  Level Houston Center
10:30 29.8983 -95.3633 267° West 250 288 6,000  Level Houston Center
10:30 29.9000 -95.4075 273° West 253 291 6,000  Level Houston Center
10:31 29.9006 -95.4328 271° West 241 277 6,000 -120 Level Houston Center
10:31 29.9008 -95.4808 270° West 238 274 5,900 -540 Descending Houston Center
10:32 29.8992 -95.5103 266° West 239 275 5,500 -1,080 Descending Houston Center
10:32 29.9006 -95.5558 272° West 237 273 4,800 -1,200 Descending Houston Center
10:33 29.9000 -95.5897 269° West 234 269 4,300 -780 Descending Houston Center
10:33 29.9175 -95.6228 301° West 231 266 4,000 -300 Descending Houston Center
10:34 29.9453 -95.6253 356° North 220 253 4,000 -420 Level Houston Center
10:34 29.9767 -95.6186 10° North 214 246 3,600 -840 Descending Houston Center
10:35 29.9922 -95.5883 59° Northeast 207 238 3,100 -600 Descending Houston Center
10:35 29.9936 -95.5617 87° East 205 236 3,000 -120 Descending Houston Center
10:36 29.9931 -95.5256 91° East 172 198 3,000 -600 Level Houston Center
10:36 29.9933 -95.4917 89° East 189 217 2,400 -900 Descending Houston Center
10:37 29.9922 -95.4703 93° East 172 198 2,100 -840 Descending Houston Center